createdAt,value
2017-10-18T00:00:59.927Z,944.0
2017-10-18T00:02:08.157Z,944.0
2017-10-18T00:03:16.175Z,944.0
2017-10-18T00:04:24.329Z,944.0
2017-10-18T00:05:32.295Z,944.0
2017-10-18T00:06:40.498Z,944.0
2017-10-18T00:07:48.468Z,944.0
2017-10-18T00:08:56.608Z,943.9
2017-10-18T00:10:04.651Z,943.9
2017-10-18T00:11:12.922Z,943.9
2017-10-18T00:12:20.856Z,943.9
2017-10-18T00:13:28.905Z,943.9
2017-10-18T00:14:37.049Z,943.9
2017-10-18T00:15:45.267Z,943.9
2017-10-18T00:16:53.179Z,943.9
2017-10-18T00:18:01.267Z,943.9
2017-10-18T00:19:09.353Z,943.9
2017-10-18T00:20:17.672Z,943.9
2017-10-18T00:21:25.528Z,943.9
2017-10-18T00:22:33.622Z,943.9
2017-10-18T00:23:41.716Z,943.9
2017-10-18T00:24:49.805Z,943.9
2017-10-18T00:25:58.011Z,943.9
2017-10-18T00:27:05.980Z,943.9
2017-10-18T00:28:14.066Z,943.9
2017-10-18T00:29:22.165Z,943.9
2017-10-18T00:30:30.256Z,943.9
2017-10-18T00:31:38.399Z,943.9
2017-10-18T00:32:46.431Z,943.9
2017-10-18T00:33:54.723Z,943.9
2017-10-18T00:35:02.617Z,943.9
2017-10-18T00:36:10.760Z,943.9
2017-10-18T00:37:18.909Z,943.9
2017-10-18T00:38:26.880Z,943.9
2017-10-18T00:39:34.969Z,943.8
2017-10-18T00:40:43.061Z,943.9
2017-10-18T00:41:51.143Z,943.8
2017-10-18T00:42:59.367Z,943.8
2017-10-18T00:44:07.318Z,943.8
2017-10-18T00:45:15.406Z,943.8
2017-10-18T00:46:23.493Z,943.8
2017-10-18T00:47:31.578Z,943.7
2017-10-18T00:48:39.741Z,943.7
2017-10-18T00:49:47.755Z,943.8
2017-10-18T00:50:55.843Z,943.7
2017-10-18T00:52:03.989Z,943.7
2017-10-18T00:53:12.023Z,943.8
2017-10-18T00:54:20.226Z,943.7
2017-10-18T00:55:28.193Z,943.7
2017-10-18T00:56:36.277Z,943.7
2017-10-18T00:57:44.400Z,943.7
2017-10-18T00:58:52.452Z,943.7
2017-10-18T01:00:00.869Z,943.7
2017-10-18T01:01:08.752Z,943.7
2017-10-18T01:02:16.836Z,943.7
2017-10-18T01:03:24.932Z,943.7
2017-10-18T01:04:33.036Z,943.7
2017-10-18T01:05:41.179Z,943.6
2017-10-18T01:06:49.213Z,943.7
2017-10-18T01:07:57.421Z,943.6
2017-10-18T01:09:05.387Z,943.7
2017-10-18T01:10:13.581Z,943.7
2017-10-18T01:11:21.683Z,943.7
2017-10-18T01:12:29.647Z,943.6
2017-10-18T01:13:37.735Z,943.7
2017-10-18T01:14:45.831Z,943.7
2017-10-18T01:15:53.912Z,943.7
2017-10-18T01:17:02.064Z,943.6
2017-10-18T01:18:10.086Z,943.7
2017-10-18T01:19:18.375Z,943.6
2017-10-18T01:20:26.317Z,943.6
2017-10-18T01:21:34.358Z,943.5
2017-10-18T01:22:42.491Z,943.6
2017-10-18T01:23:50.770Z,943.6
2017-10-18T01:24:58.611Z,943.5
2017-10-18T01:26:06.696Z,943.5
2017-10-18T01:27:14.785Z,943.5
2017-10-18T01:28:22.999Z,943.5
2017-10-18T01:29:30.958Z,943.5
2017-10-18T01:30:39.047Z,943.5
2017-10-18T01:31:47.135Z,943.5
2017-10-18T01:32:55.220Z,943.5
2017-10-18T01:34:03.409Z,943.5
2017-10-18T01:35:11.394Z,943.5
2017-10-18T01:36:19.481Z,943.5
2017-10-18T01:37:27.571Z,943.5
2017-10-18T01:38:35.705Z,943.5
2017-10-18T01:39:43.804Z,943.5
2017-10-18T01:40:51.833Z,943.5
2017-10-18T01:41:59.918Z,943.5
2017-10-18T01:43:08.006Z,943.4
2017-10-18T01:44:16.094Z,943.4
2017-10-18T01:45:24.313Z,943.4
2017-10-18T01:46:32.273Z,943.4
2017-10-18T01:47:40.374Z,943.4
2017-10-18T01:48:48.441Z,943.4
2017-10-18T01:49:56.530Z,943.4
2017-10-18T01:51:04.674Z,943.4
2017-10-18T01:52:12.723Z,943.4
2017-10-18T01:53:20.791Z,943.4
2017-10-18T01:54:28.890Z,943.4
2017-10-18T01:55:37.022Z,943.3
2017-10-18T01:56:45.223Z,943.3
2017-10-18T01:57:53.150Z,943.3
2017-10-18T01:59:01.246Z,943.3
2017-10-18T02:00:09.336Z,943.3
2017-10-18T02:01:17.450Z,943.3
2017-10-18T02:02:25.632Z,943.2
2017-10-18T02:03:33.601Z,943.3
2017-10-18T02:04:41.686Z,943.3
2017-10-18T02:05:49.776Z,943.3
2017-10-18T02:06:57.860Z,943.3
2017-10-18T02:08:06.004Z,943.3
2017-10-18T02:09:14.032Z,943.2
2017-10-18T02:10:22.125Z,943.2
2017-10-18T02:11:30.268Z,943.2
2017-10-18T02:12:38.299Z,943.2
2017-10-18T02:13:46.509Z,943.2
2017-10-18T02:14:54.572Z,943.2
2017-10-18T02:16:02.558Z,943.1
2017-10-18T02:17:10.644Z,943.1
2017-10-18T02:18:18.742Z,943.1
2017-10-18T02:19:26.969Z,943.1
2017-10-18T02:20:34.916Z,943.1
2017-10-18T02:21:43.013Z,943.1
2017-10-18T02:22:51.105Z,943.1
2017-10-18T02:23:59.360Z,943.1
2017-10-18T02:25:07.329Z,943.1
2017-10-18T02:26:15.362Z,943.1
2017-10-18T02:27:23.570Z,943.1
2017-10-18T02:28:31.534Z,943.1
2017-10-18T02:29:39.624Z,943.0
2017-10-18T02:30:47.831Z,943.0
2017-10-18T02:31:55.793Z,943.0
2017-10-18T02:33:03.882Z,943.0
2017-10-18T02:34:11.969Z,943.0
2017-10-18T02:35:20.055Z,943.0
2017-10-18T02:36:28.198Z,943.0
2017-10-18T02:37:36.235Z,943.0
2017-10-18T02:38:44.315Z,943.0
2017-10-18T02:39:52.404Z,943.0
2017-10-18T02:41:00.491Z,943.0
2017-10-18T02:42:08.632Z,943.0
2017-10-18T02:43:16.792Z,943.0
2017-10-18T02:44:24.748Z,943.0
2017-10-18T02:45:32.835Z,943.0
2017-10-18T02:46:40.924Z,943.0
2017-10-18T02:47:49.065Z,943.0
2017-10-18T02:48:57.097Z,943.0
2017-10-18T02:50:05.182Z,943.0
2017-10-18T02:51:13.269Z,943.0
2017-10-18T02:52:21.362Z,943.0
2017-10-18T02:53:29.498Z,942.9
2017-10-18T02:54:37.556Z,942.9
2017-10-18T02:55:45.633Z,942.9
2017-10-18T02:56:53.827Z,942.9
2017-10-18T02:58:01.805Z,942.9
2017-10-18T02:59:10.011Z,942.9
2017-10-18T03:00:17.980Z,942.9
2017-10-18T03:01:26.069Z,942.9
2017-10-18T03:02:34.153Z,942.9
2017-10-18T03:03:42.240Z,942.9
2017-10-18T03:04:50.449Z,942.9
2017-10-18T03:05:58.597Z,942.9
2017-10-18T03:07:06.498Z,942.8
2017-10-18T03:08:14.582Z,942.9
2017-10-18T03:09:22.670Z,942.9
2017-10-18T03:10:30.816Z,942.9
2017-10-18T03:11:38.843Z,942.8
2017-10-18T03:12:46.932Z,942.8
2017-10-18T03:13:55.017Z,942.9
2017-10-18T03:15:03.388Z,942.8
2017-10-18T03:16:11.318Z,942.8
2017-10-18T03:17:19.276Z,942.8
2017-10-18T03:18:27.362Z,942.8
2017-10-18T03:19:35.642Z,942.8
2017-10-18T03:20:43.536Z,942.9
2017-10-18T03:21:51.677Z,942.8
2017-10-18T03:22:59.709Z,942.8
2017-10-18T03:24:07.855Z,942.8
2017-10-18T03:25:15.884Z,942.8
2017-10-18T03:26:23.968Z,942.8
2017-10-18T03:27:32.111Z,942.8
2017-10-18T03:28:40.140Z,942.9
2017-10-18T03:29:48.239Z,942.8
2017-10-18T03:30:56.434Z,942.8
2017-10-18T03:32:04.410Z,942.8
2017-10-18T03:33:12.719Z,942.8
2017-10-18T03:34:20.572Z,942.8
2017-10-18T03:35:28.660Z,942.8
2017-10-18T03:36:36.746Z,942.8
2017-10-18T03:37:44.918Z,942.8
2017-10-18T03:38:52.994Z,942.8
2017-10-18T03:40:01.229Z,942.8
2017-10-18T03:41:09.120Z,942.8
2017-10-18T03:42:17.210Z,942.8
2017-10-18T03:43:25.297Z,942.8
2017-10-18T03:44:33.504Z,942.8
2017-10-18T03:45:41.473Z,942.8
2017-10-18T03:46:49.621Z,942.8
2017-10-18T03:47:57.643Z,942.8
2017-10-18T03:49:05.729Z,942.8
2017-10-18T03:50:13.872Z,942.7
2017-10-18T03:51:21.899Z,942.8
2017-10-18T03:52:29.986Z,942.8
2017-10-18T03:53:38.074Z,942.8
2017-10-18T03:54:46.159Z,942.8
2017-10-18T03:57:02.334Z,942.7
2017-10-18T03:58:10.435Z,942.7
2017-10-18T03:59:18.515Z,942.8
2017-10-18T04:00:26.724Z,942.8
2017-10-18T04:01:34.801Z,942.7
2017-10-18T04:02:42.833Z,942.8
2017-10-18T04:03:50.862Z,942.8
2017-10-18T04:04:58.951Z,942.8
2017-10-18T04:06:07.102Z,942.7
2017-10-18T04:07:15.247Z,942.7
2017-10-18T04:08:23.208Z,942.7
2017-10-18T04:09:31.435Z,942.7
2017-10-18T04:10:39.447Z,942.7
2017-10-18T04:11:47.479Z,942.7
2017-10-18T04:12:55.610Z,942.7
2017-10-18T04:14:03.641Z,942.7
2017-10-18T04:15:11.803Z,942.7
2017-10-18T04:16:19.815Z,942.7
2017-10-18T04:17:27.901Z,942.7
2017-10-18T04:18:36.233Z,942.7
2017-10-18T04:19:44.148Z,942.7
2017-10-18T04:20:52.159Z,942.7
2017-10-18T04:22:00.251Z,942.7
2017-10-18T04:23:08.341Z,942.6
2017-10-18T04:24:16.541Z,942.6
2017-10-18T04:25:24.511Z,942.7
2017-10-18T04:26:32.593Z,942.6
2017-10-18T04:27:40.683Z,942.6
2017-10-18T04:28:48.767Z,942.6
2017-10-18T04:29:57.401Z,942.6
2017-10-18T04:31:04.939Z,942.6
2017-10-18T04:32:13.027Z,942.6
2017-10-18T04:33:21.156Z,942.6
2017-10-18T04:34:29.257Z,942.5
2017-10-18T04:35:37.710Z,942.6
2017-10-18T04:36:45.537Z,942.5
2017-10-18T04:37:53.478Z,942.6
2017-10-18T04:39:01.745Z,942.5
2017-10-18T04:40:09.827Z,942.5
2017-10-18T04:41:17.784Z,942.5
2017-10-18T04:42:26.466Z,942.5
2017-10-18T04:43:33.910Z,942.5
2017-10-18T04:44:42.380Z,942.5
2017-10-18T04:45:50.082Z,942.5
2017-10-18T04:46:58.227Z,942.5
2017-10-18T04:48:06.630Z,942.5
2017-10-18T04:49:14.365Z,942.4
2017-10-18T04:50:22.511Z,942.4
2017-10-18T04:51:30.676Z,942.5
2017-10-18T04:52:38.683Z,942.4
2017-10-18T04:53:46.713Z,942.5
2017-10-18T04:54:54.807Z,942.4
2017-10-18T04:56:02.921Z,942.4
2017-10-18T04:57:10.977Z,942.4
2017-10-18T04:58:20.683Z,942.4
2017-10-18T04:59:27.152Z,942.4
2017-10-18T05:00:35.399Z,942.4
2017-10-18T05:01:43.326Z,942.4
2017-10-18T05:02:51.417Z,942.4
2017-10-18T05:03:59.556Z,942.4
2017-10-18T05:05:07.580Z,942.3
2017-10-18T05:06:15.793Z,942.4
2017-10-18T05:07:23.755Z,942.3
2017-10-18T05:08:31.854Z,942.3
2017-10-18T05:09:40.818Z,942.2
2017-10-18T05:10:48.633Z,942.3
2017-10-18T05:11:56.102Z,942.3
2017-10-18T05:13:04.191Z,942.2
2017-10-18T05:14:12.283Z,942.2
2017-10-18T05:15:20.438Z,942.3
2017-10-18T05:16:28.460Z,942.2
2017-10-18T05:17:36.544Z,942.2
2017-10-18T05:18:44.632Z,942.3
2017-10-18T05:19:52.717Z,942.2
2017-10-18T05:21:00.858Z,942.3
2017-10-18T05:22:09.013Z,942.3
2017-10-18T05:23:16.974Z,942.3
2017-10-18T05:24:25.061Z,942.2
2017-10-18T05:25:33.152Z,942.2
2017-10-18T05:26:41.354Z,942.3
2017-10-18T05:27:49.317Z,942.2
2017-10-18T05:28:57.442Z,942.3
2017-10-18T05:30:05.492Z,942.2
2017-10-18T05:31:13.577Z,942.2
2017-10-18T05:32:21.718Z,942.3
2017-10-18T05:33:29.749Z,942.2
2017-10-18T05:34:37.834Z,942.3
2017-10-18T05:35:45.922Z,942.3
2017-10-18T05:36:54.008Z,942.3
2017-10-18T05:38:02.152Z,942.3
2017-10-18T05:39:10.181Z,942.3
2017-10-18T05:40:18.264Z,942.3
2017-10-18T05:41:26.350Z,942.2
2017-10-18T05:42:34.481Z,942.3
2017-10-18T05:43:42.831Z,942.3
2017-10-18T05:44:50.609Z,942.3
2017-10-18T05:45:58.698Z,942.3
2017-10-18T05:47:06.836Z,942.3
2017-10-18T05:48:14.867Z,942.3
2017-10-18T05:49:23.018Z,942.3
2017-10-18T05:50:31.048Z,942.2
2017-10-18T05:51:39.135Z,942.2
2017-10-18T05:52:47.220Z,942.3
2017-10-18T05:53:55.363Z,942.2
2017-10-18T05:55:03.449Z,942.2
2017-10-18T05:56:11.575Z,942.2
2017-10-18T05:57:19.563Z,942.3
2017-10-18T05:58:27.649Z,942.2
2017-10-18T05:59:35.740Z,942.3
2017-10-18T06:00:43.878Z,942.3
2017-10-18T06:01:51.909Z,942.3
2017-10-18T06:03:00.000Z,942.3
2017-10-18T06:04:08.082Z,942.3
2017-10-18T06:05:16.362Z,942.3
2017-10-18T06:06:24.481Z,942.3
2017-10-18T06:07:32.339Z,942.3
2017-10-18T06:08:40.425Z,942.3
2017-10-18T06:09:48.566Z,942.3
2017-10-18T06:10:56.601Z,942.3
2017-10-18T06:12:04.739Z,942.3
2017-10-18T06:13:12.767Z,942.3
2017-10-18T06:14:20.855Z,942.3
2017-10-18T06:15:28.941Z,942.4
2017-10-18T06:16:37.026Z,942.4
2017-10-18T06:17:45.167Z,942.3
2017-10-18T06:18:53.206Z,942.3
2017-10-18T06:20:01.443Z,942.3
2017-10-18T06:21:09.372Z,942.4
2017-10-18T06:22:17.453Z,942.4
2017-10-18T06:23:25.608Z,942.4
2017-10-18T06:24:33.636Z,942.4
2017-10-18T06:25:41.845Z,942.4
2017-10-18T06:26:49.808Z,942.3
2017-10-18T06:27:57.898Z,942.3
2017-10-18T06:29:06.036Z,942.4
2017-10-18T06:30:14.068Z,942.4
2017-10-18T06:31:22.153Z,942.4
2017-10-18T06:32:30.236Z,942.4
2017-10-18T06:33:38.327Z,942.4
2017-10-18T06:34:46.569Z,942.4
2017-10-18T06:35:54.503Z,942.4
2017-10-18T06:37:02.581Z,942.4
2017-10-18T06:38:10.838Z,942.4
2017-10-18T06:39:18.756Z,942.4
2017-10-18T06:40:26.901Z,942.5
2017-10-18T06:41:34.983Z,942.5
2017-10-18T06:42:43.154Z,942.5
2017-10-18T06:43:51.264Z,942.5
2017-10-18T06:44:59.351Z,942.5
2017-10-18T06:46:07.558Z,942.5
2017-10-18T06:47:15.522Z,942.5
2017-10-18T06:48:23.613Z,942.5
2017-10-18T06:49:31.712Z,942.4
2017-10-18T06:50:39.798Z,942.5
2017-10-18T06:51:48.391Z,942.4
2017-10-18T06:52:55.970Z,942.5
2017-10-18T06:54:04.056Z,942.5
2017-10-18T06:55:12.143Z,942.5
2017-10-18T06:56:20.232Z,942.5
2017-10-18T06:57:28.451Z,942.5
2017-10-18T06:58:36.402Z,942.5
2017-10-18T06:59:44.486Z,942.5
2017-10-18T07:00:52.664Z,942.5
2017-10-18T07:02:00.656Z,942.5
2017-10-18T07:03:08.801Z,942.5
2017-10-18T07:04:16.831Z,942.5
2017-10-18T07:05:24.915Z,942.5
2017-10-18T07:06:33.002Z,942.5
2017-10-18T07:07:41.086Z,942.5
2017-10-18T07:08:49.295Z,942.5
2017-10-18T07:09:57.326Z,942.5
2017-10-18T07:11:05.349Z,942.5
2017-10-18T07:12:13.435Z,942.5
2017-10-18T07:13:21.580Z,942.5
2017-10-18T07:14:29.664Z,942.5
2017-10-18T07:15:37.694Z,942.5
2017-10-18T07:16:45.785Z,942.5
2017-10-18T07:17:53.865Z,942.6
2017-10-18T07:19:01.951Z,942.5
2017-10-18T07:20:10.157Z,942.5
2017-10-18T07:21:18.122Z,942.5
2017-10-18T07:22:26.208Z,942.5
2017-10-18T07:23:34.344Z,942.5
2017-10-18T07:24:42.378Z,942.5
2017-10-18T07:25:50.724Z,942.5
2017-10-18T07:26:58.560Z,942.5
2017-10-18T07:28:06.645Z,942.5
2017-10-18T07:29:14.853Z,942.5
2017-10-18T07:30:22.819Z,942.5
2017-10-18T07:31:31.163Z,942.5
2017-10-18T07:32:38.999Z,942.5
2017-10-18T07:33:47.088Z,942.5
2017-10-18T07:34:55.190Z,942.5
2017-10-18T07:36:03.258Z,942.5
2017-10-18T07:37:11.473Z,942.5
2017-10-18T07:38:19.431Z,942.5
2017-10-18T07:39:27.515Z,942.5
2017-10-18T07:40:35.602Z,942.5
2017-10-18T07:41:43.883Z,942.5
2017-10-18T07:42:51.887Z,942.5
2017-10-18T07:43:59.856Z,942.5
2017-10-18T07:45:08.104Z,942.5
2017-10-18T07:46:16.235Z,942.4
2017-10-18T07:47:24.121Z,942.5
2017-10-18T07:48:32.329Z,942.5
2017-10-18T07:49:40.293Z,942.5
2017-10-18T07:50:48.389Z,942.5
2017-10-18T07:51:56.474Z,942.4
2017-10-18T07:53:04.559Z,942.4
2017-10-18T07:54:12.709Z,942.4
2017-10-18T07:55:20.911Z,942.5
2017-10-18T07:56:28.816Z,942.5
2017-10-18T07:57:36.903Z,942.4
2017-10-18T07:58:44.985Z,942.4
2017-10-18T07:59:53.197Z,942.4
2017-10-18T08:01:01.215Z,942.4
2017-10-18T08:02:09.243Z,942.4
2017-10-18T08:03:17.330Z,942.4
2017-10-18T08:04:25.600Z,942.4
2017-10-18T08:05:33.721Z,942.4
2017-10-18T08:06:41.595Z,942.4
2017-10-18T08:07:49.672Z,942.4
2017-10-18T08:08:57.756Z,942.5
2017-10-18T08:10:05.863Z,942.4
2017-10-18T08:11:14.002Z,942.5
2017-10-18T08:12:22.029Z,942.5
2017-10-18T08:13:30.319Z,942.5
2017-10-18T08:14:38.200Z,942.4
2017-10-18T08:15:46.286Z,942.5
2017-10-18T08:16:54.426Z,942.4
2017-10-18T08:18:02.464Z,942.4
2017-10-18T08:19:10.543Z,942.4
2017-10-18T08:20:18.626Z,942.4
2017-10-18T08:21:26.714Z,942.4
2017-10-18T08:22:34.919Z,942.4
2017-10-18T08:23:43.052Z,942.4
2017-10-18T08:24:50.967Z,942.4
2017-10-18T08:25:59.057Z,942.4
2017-10-18T08:27:07.142Z,942.4
2017-10-18T08:28:15.444Z,942.4
2017-10-18T08:29:23.312Z,942.4
2017-10-18T08:30:31.406Z,942.4
2017-10-18T08:31:39.483Z,942.4
2017-10-18T08:32:47.690Z,942.4
2017-10-18T08:33:55.903Z,942.4
2017-10-18T08:35:03.738Z,942.4
2017-10-18T08:36:11.823Z,942.4
2017-10-18T08:37:20.059Z,942.4
2017-10-18T08:38:27.998Z,942.4
2017-10-18T08:39:36.138Z,942.5
2017-10-18T08:40:44.167Z,942.5
2017-10-18T08:41:52.394Z,942.4
2017-10-18T08:43:00.340Z,942.4
2017-10-18T08:44:08.423Z,942.4
2017-10-18T08:45:16.644Z,942.4
2017-10-18T08:46:24.753Z,942.4
2017-10-18T08:47:32.680Z,942.4
2017-10-18T08:48:40.887Z,942.4
2017-10-18T08:49:48.861Z,942.4
2017-10-18T08:50:57.008Z,942.3
2017-10-18T08:52:05.035Z,942.3
2017-10-18T08:53:13.121Z,942.3
2017-10-18T08:54:21.212Z,942.3
2017-10-18T08:55:29.295Z,942.3
2017-10-18T08:56:37.594Z,942.3
2017-10-18T08:57:45.517Z,942.3
2017-10-18T08:58:53.604Z,942.3
2017-10-18T09:00:01.783Z,942.3
2017-10-18T09:01:09.774Z,942.3
2017-10-18T09:02:17.916Z,942.3
2017-10-18T09:03:25.946Z,942.3
2017-10-18T09:04:34.339Z,942.3
2017-10-18T09:05:42.118Z,942.3
2017-10-18T09:06:50.202Z,942.3
2017-10-18T09:07:58.345Z,942.3
2017-10-18T09:09:06.379Z,942.3
2017-10-18T09:10:14.478Z,942.3
2017-10-18T09:11:22.551Z,942.4
2017-10-18T09:12:30.629Z,942.4
2017-10-18T09:13:38.837Z,942.3
2017-10-18T09:14:46.833Z,942.3
2017-10-18T09:15:54.888Z,942.3
2017-10-18T09:17:02.976Z,942.2
2017-10-18T09:18:11.059Z,942.3
2017-10-18T09:19:19.290Z,942.3
2017-10-18T09:20:27.285Z,942.2
2017-10-18T09:21:35.324Z,942.3
2017-10-18T09:22:43.504Z,942.2
2017-10-18T09:23:51.503Z,942.2
2017-10-18T09:24:59.702Z,942.2
2017-10-18T09:26:07.661Z,942.2
2017-10-18T09:27:15.747Z,942.2
2017-10-18T09:28:23.832Z,942.2
2017-10-18T09:29:31.927Z,942.2
2017-10-18T09:30:40.057Z,942.2
2017-10-18T09:31:48.089Z,942.2
2017-10-18T09:32:56.291Z,942.2
2017-10-18T09:34:04.260Z,942.2
2017-10-18T09:35:12.352Z,942.2
2017-10-18T09:36:20.689Z,942.2
2017-10-18T09:37:28.558Z,942.2
2017-10-18T09:38:36.606Z,942.2
2017-10-18T09:39:44.693Z,942.2
2017-10-18T09:40:52.781Z,942.2
2017-10-18T09:42:00.988Z,942.2
2017-10-18T09:43:08.954Z,942.2
2017-10-18T09:44:17.052Z,942.2
2017-10-18T09:45:25.132Z,942.2
2017-10-18T09:46:33.342Z,942.2
2017-10-18T09:47:41.602Z,942.2
2017-10-18T09:48:49.395Z,942.2
2017-10-18T09:49:57.484Z,942.2
2017-10-18T09:51:05.686Z,942.1
2017-10-18T09:52:13.712Z,942.1
2017-10-18T09:53:21.796Z,942.1
2017-10-18T09:54:29.823Z,942.2
2017-10-18T09:55:37.909Z,942.2
2017-10-18T09:56:46.068Z,942.2
2017-10-18T09:57:54.082Z,942.2
2017-10-18T09:59:02.289Z,942.2
2017-10-18T10:00:10.279Z,942.1
2017-10-18T10:01:18.345Z,942.1
2017-10-18T10:02:26.425Z,942.1
2017-10-18T10:03:34.514Z,942.1
2017-10-18T10:04:42.653Z,942.0
2017-10-18T10:05:50.691Z,942.0
2017-10-18T10:06:58.768Z,942.1
2017-10-18T10:08:06.912Z,942.0
2017-10-18T10:09:15.061Z,942.1
2017-10-18T10:10:23.083Z,942.1
2017-10-18T10:11:31.113Z,942.1
2017-10-18T10:12:39.201Z,942.1
2017-10-18T10:13:47.286Z,942.1
2017-10-18T10:14:55.371Z,942.1
2017-10-18T10:16:03.516Z,942.1
2017-10-18T10:17:11.542Z,942.1
2017-10-18T10:18:19.628Z,942.1
2017-10-18T10:19:27.788Z,942.0
2017-10-18T10:20:35.801Z,942.0
2017-10-18T10:21:43.943Z,942.0
2017-10-18T10:22:51.976Z,942.0
2017-10-18T10:24:00.189Z,942.0
2017-10-18T10:25:08.143Z,942.0
2017-10-18T10:26:16.256Z,942.0
2017-10-18T10:27:24.373Z,942.0
2017-10-18T10:28:32.487Z,942.0
2017-10-18T10:29:40.494Z,942.0
2017-10-18T10:30:48.579Z,942.0
2017-10-18T10:31:56.668Z,942.0
2017-10-18T10:33:04.876Z,942.0
2017-10-18T10:34:12.840Z,942.0
2017-10-18T10:35:20.931Z,942.0
2017-10-18T10:36:29.121Z,941.9
2017-10-18T10:37:37.159Z,941.9
2017-10-18T10:38:45.242Z,941.9
2017-10-18T10:39:53.326Z,941.9
2017-10-18T10:41:01.356Z,942.0
2017-10-18T10:42:09.596Z,942.0
2017-10-18T10:43:17.524Z,942.0
2017-10-18T10:44:25.858Z,941.9
2017-10-18T10:45:33.698Z,942.0
2017-10-18T10:46:41.784Z,941.9
2017-10-18T10:47:49.871Z,942.0
2017-10-18T10:48:57.957Z,942.0
2017-10-18T10:50:06.106Z,942.0
2017-10-18T10:51:14.135Z,942.0
2017-10-18T10:52:22.222Z,942.0
2017-10-18T10:53:30.314Z,941.9
2017-10-18T10:54:38.400Z,942.0
2017-10-18T10:55:46.537Z,942.0
2017-10-18T10:56:54.585Z,941.9
2017-10-18T10:58:02.656Z,941.9
2017-10-18T10:59:10.739Z,941.9
2017-10-18T11:00:18.826Z,941.9
2017-10-18T11:01:26.969Z,941.9
2017-10-18T11:02:35.003Z,941.9
2017-10-18T11:03:43.085Z,941.9
2017-10-18T11:04:51.176Z,941.9
2017-10-18T11:05:59.257Z,941.9
2017-10-18T11:07:07.397Z,941.9
2017-10-18T11:08:15.428Z,941.9
2017-10-18T11:09:23.516Z,941.8
2017-10-18T11:10:31.632Z,941.8
2017-10-18T11:11:39.742Z,941.8
2017-10-18T11:12:47.893Z,941.8
2017-10-18T11:13:55.867Z,941.8
2017-10-18T11:15:03.944Z,941.7
2017-10-18T11:16:12.034Z,941.8
2017-10-18T11:17:20.117Z,941.8
2017-10-18T11:18:28.259Z,941.8
2017-10-18T11:19:36.302Z,941.8
2017-10-18T11:20:44.375Z,941.8
2017-10-18T11:21:52.462Z,941.8
2017-10-18T11:23:00.546Z,941.7
2017-10-18T11:24:08.692Z,941.7
2017-10-18T11:25:16.720Z,941.7
2017-10-18T11:26:24.815Z,941.7
2017-10-18T11:27:32.955Z,941.7
2017-10-18T11:28:40.979Z,941.6
2017-10-18T11:29:49.132Z,941.6
2017-10-18T11:30:57.160Z,941.6
2017-10-18T11:32:05.251Z,941.6
2017-10-18T11:33:13.361Z,941.6
2017-10-18T11:34:21.419Z,941.5
2017-10-18T11:35:29.560Z,941.5
2017-10-18T11:36:37.590Z,941.5
2017-10-18T11:37:45.677Z,941.5
2017-10-18T11:38:53.761Z,941.5
2017-10-18T11:40:01.855Z,941.4
2017-10-18T11:41:09.998Z,941.5
2017-10-18T11:42:18.153Z,941.4
2017-10-18T11:43:26.167Z,941.4
2017-10-18T11:44:34.201Z,941.3
2017-10-18T11:45:42.286Z,941.3
2017-10-18T11:46:50.491Z,941.3
2017-10-18T11:47:58.456Z,941.2
2017-10-18T11:49:06.542Z,941.2
2017-10-18T11:50:14.630Z,941.2
2017-10-18T11:51:22.715Z,941.2
2017-10-18T11:52:30.922Z,941.2
2017-10-18T11:53:38.887Z,941.2
2017-10-18T11:54:46.974Z,941.1
2017-10-18T11:55:55.066Z,941.1
2017-10-18T11:57:03.191Z,941.2
2017-10-18T11:58:11.536Z,941.2
2017-10-18T11:59:19.700Z,941.1
2017-10-18T12:00:27.590Z,941.1
2017-10-18T12:01:35.599Z,941.2
2017-10-18T12:02:43.695Z,941.2
2017-10-18T12:03:51.904Z,941.2
2017-10-18T12:04:59.939Z,941.2
2017-10-18T12:06:07.956Z,941.1
2017-10-18T12:07:16.044Z,941.1
2017-10-18T12:08:24.133Z,941.2
2017-10-18T12:09:32.357Z,941.2
2017-10-18T12:10:40.307Z,941.2
2017-10-18T12:11:48.394Z,941.1
2017-10-18T12:12:56.478Z,941.1
2017-10-18T12:14:04.632Z,941.1
2017-10-18T12:15:12.789Z,941.1
2017-10-18T12:16:20.738Z,941.1
2017-10-18T12:17:28.823Z,941.0
2017-10-18T12:18:36.908Z,941.0
2017-10-18T12:19:44.994Z,941.0
2017-10-18T12:20:53.137Z,941.0
2017-10-18T12:22:01.170Z,941.0
2017-10-18T12:23:09.328Z,941.0
2017-10-18T12:24:17.341Z,941.0
2017-10-18T12:25:25.425Z,941.0
2017-10-18T12:26:33.575Z,940.9
2017-10-18T12:27:41.752Z,940.9
2017-10-18T12:28:49.681Z,940.9
2017-10-18T12:29:57.767Z,940.9
2017-10-18T12:31:05.912Z,940.9
2017-10-18T12:32:14.168Z,940.8
2017-10-18T12:33:22.039Z,940.9
2017-10-18T12:34:30.128Z,940.9
2017-10-18T12:35:38.210Z,940.8
2017-10-18T12:36:46.303Z,940.9
2017-10-18T12:37:54.542Z,940.8
2017-10-18T12:39:02.465Z,940.8
2017-10-18T12:40:10.561Z,940.8
2017-10-18T12:41:18.806Z,940.8
2017-10-18T12:42:26.735Z,940.8
2017-10-18T12:43:34.878Z,940.8
2017-10-18T12:44:42.903Z,940.8
2017-10-18T12:45:51.002Z,940.8
2017-10-18T12:46:59.207Z,940.8
2017-10-18T12:48:07.174Z,940.8
2017-10-18T12:49:15.316Z,940.7
2017-10-18T12:50:23.345Z,940.7
2017-10-18T12:51:31.503Z,940.8
2017-10-18T12:52:39.517Z,940.7
2017-10-18T12:53:47.603Z,940.8
2017-10-18T12:54:55.747Z,940.7
2017-10-18T12:56:03.781Z,940.7
2017-10-18T12:57:11.860Z,940.7
2017-10-18T12:58:19.949Z,940.8
2017-10-18T12:59:28.035Z,940.7
2017-10-18T13:00:36.176Z,940.8
2017-10-18T13:01:44.204Z,940.7
2017-10-18T13:02:52.410Z,940.7
2017-10-18T13:04:00.378Z,940.7
2017-10-18T13:05:08.551Z,940.7
2017-10-18T13:06:16.607Z,940.7
2017-10-18T13:07:24.638Z,940.7
2017-10-18T13:08:32.720Z,940.7
2017-10-18T13:09:40.808Z,940.7
2017-10-18T13:10:48.895Z,940.7
2017-10-18T13:11:57.102Z,940.7
2017-10-18T13:13:05.062Z,940.7
2017-10-18T13:14:13.327Z,940.7
2017-10-18T13:15:21.237Z,940.7
2017-10-18T13:16:29.322Z,940.7
2017-10-18T13:17:37.687Z,940.6
2017-10-18T13:18:45.787Z,940.6
2017-10-18T13:19:53.697Z,940.6
2017-10-18T13:21:01.783Z,940.6
2017-10-18T13:22:10.062Z,940.6
2017-10-18T13:23:18.009Z,940.6
2017-10-18T13:24:26.040Z,940.6
2017-10-18T13:25:34.132Z,940.6
2017-10-18T13:26:42.419Z,940.6
2017-10-18T13:27:50.308Z,940.6
2017-10-18T13:28:58.447Z,940.7
2017-10-18T13:30:06.491Z,940.6
2017-10-18T13:31:14.745Z,940.6
2017-10-18T13:32:22.674Z,940.6
2017-10-18T13:33:30.740Z,940.6
2017-10-18T13:34:38.877Z,940.6
2017-10-18T13:35:46.915Z,940.6
2017-10-18T13:36:55.000Z,940.6
2017-10-18T13:38:03.086Z,940.6
2017-10-18T13:39:11.173Z,940.7
2017-10-18T13:40:19.329Z,940.7
2017-10-18T13:41:27.491Z,940.7
2017-10-18T13:42:35.454Z,940.7
2017-10-18T13:43:43.538Z,940.7
2017-10-18T13:44:51.625Z,940.6
2017-10-18T13:45:59.868Z,940.6
2017-10-18T13:47:07.796Z,940.6
2017-10-18T13:48:15.913Z,940.6
2017-10-18T13:49:23.970Z,940.6
2017-10-18T13:50:32.264Z,940.5
2017-10-18T13:51:40.201Z,940.5
2017-10-18T13:52:48.225Z,940.5
2017-10-18T13:53:56.310Z,940.5
2017-10-18T13:55:04.398Z,940.5
2017-10-18T13:56:12.482Z,940.5
2017-10-18T13:57:20.688Z,940.5
2017-10-18T13:58:28.656Z,940.5
2017-10-18T13:59:36.742Z,940.5
2017-10-18T14:00:44.827Z,940.5
2017-10-18T14:01:52.914Z,940.5
2017-10-18T14:03:01.058Z,940.5
2017-10-18T14:04:09.171Z,940.5
2017-10-18T14:05:17.171Z,940.5
2017-10-18T14:06:25.504Z,940.5
2017-10-18T14:07:33.345Z,940.5
2017-10-18T14:08:41.591Z,940.5
2017-10-18T14:09:49.516Z,940.5
2017-10-18T14:10:57.607Z,940.5
2017-10-18T14:12:05.690Z,940.6
2017-10-18T14:13:13.873Z,940.5
2017-10-18T14:14:21.917Z,940.5
2017-10-18T14:15:29.964Z,940.5
2017-10-18T14:16:38.033Z,940.5
2017-10-18T14:17:46.242Z,940.5
2017-10-18T14:18:54.245Z,940.5
2017-10-18T14:20:02.349Z,940.5
2017-10-18T14:21:10.382Z,940.5
2017-10-18T14:22:18.525Z,940.5
2017-10-18T14:23:26.610Z,940.5
2017-10-18T14:24:34.637Z,940.4
2017-10-18T14:25:42.777Z,940.4
2017-10-18T14:26:50.807Z,940.4
2017-10-18T14:27:58.895Z,940.4
2017-10-18T14:29:06.983Z,940.4
2017-10-18T14:30:15.068Z,940.4
2017-10-18T14:31:23.211Z,940.4
2017-10-18T14:32:31.325Z,940.3
2017-10-18T14:33:39.327Z,940.4
2017-10-18T14:34:47.412Z,940.3
2017-10-18T14:35:55.498Z,940.3
2017-10-18T14:37:03.640Z,940.3
2017-10-18T14:38:11.727Z,940.3